createdAt,value
2023-03-17T00:00:18.077Z,100898.03
2023-03-17T00:02:46.045Z,100897.38
2023-03-17T00:05:24.950Z,100897.03
2023-03-17T00:07:53.218Z,100892.94
2023-03-17T00:10:25.609Z,100887.47
2023-03-17T00:12:53.633Z,100890.44
2023-03-17T00:15:21.729Z,100897.41
2023-03-17T00:17:49.583Z,100896.50
2023-03-17T00:20:22.426Z,100898.81
2023-03-17T00:22:49.009Z,100891.19
2023-03-17T00:25:22.120Z,100892.59
2023-03-17T00:27:49.600Z,100886.81
2023-03-17T00:30:16.618Z,100892.78
2023-03-17T00:32:45.273Z,100890.50
2023-03-17T00:35:16.115Z,100894.69
2023-03-17T00:37:42.620Z,100894.72
2023-03-17T00:40:15.173Z,100900.88
2023-03-17T00:42:41.850Z,100902.03
2023-03-17T00:45:08.521Z,100893.69
2023-03-17T00:47:34.954Z,100900.19
2023-03-17T00:50:01.380Z,100904.34
2023-03-17T00:52:28.505Z,100888.88
2023-03-17T00:54:54.877Z,100887.72
2023-03-17T00:57:21.261Z,100880.19
2023-03-17T00:59:47.898Z,100868.50
2023-03-17T01:02:14.485Z,100859.75
2023-03-17T01:04:42.867Z,100865.66
2023-03-17T01:07:13.334Z,100865.00
2023-03-17T01:09:40.991Z,100864.13
2023-03-17T01:12:10.666Z,100859.59
2023-03-17T01:14:38.080Z,100861.09
2023-03-17T01:17:18.379Z,100867.91
2023-03-17T01:19:46.306Z,100862.22
2023-03-17T01:22:13.522Z,100863.91
2023-03-17T01:24:40.283Z,100861.97
2023-03-17T01:27:07.047Z,100863.59
2023-03-17T01:29:34.765Z,100857.56
2023-03-17T01:32:01.183Z,100850.66
2023-03-17T01:34:28.129Z,100845.44
2023-03-17T01:36:54.758Z,100850.75
2023-03-17T01:39:21.125Z,100852.97
2023-03-17T01:41:47.627Z,100844.69
2023-03-17T01:44:18.683Z,100838.56
2023-03-17T01:46:47.255Z,100847.31
2023-03-17T01:49:25.003Z,100846.16
2023-03-17T01:51:59.003Z,100856.72
2023-03-17T01:54:56.756Z,100858.28
2023-03-17T01:57:28.637Z,100844.59
2023-03-17T02:00:10.360Z,100844.63
2023-03-17T02:02:41.866Z,100846.91
2023-03-17T02:05:11.365Z,100849.84
2023-03-17T02:07:38.416Z,100850.25
2023-03-17T02:10:05.946Z,100844.59
2023-03-17T02:12:34.639Z,100837.75
2023-03-17T02:15:01.079Z,100834.69
2023-03-17T02:17:28.253Z,100828.66
2023-03-17T02:19:55.381Z,100838.09
2023-03-17T02:22:21.962Z,100826.47
2023-03-17T02:24:57.729Z,100817.34
2023-03-17T02:27:31.000Z,100831.31
2023-03-17T02:29:58.069Z,100834.78
2023-03-17T02:32:24.487Z,100823.00
2023-03-17T02:34:51.305Z,100830.13
2023-03-17T02:37:18.327Z,100836.97
2023-03-17T02:39:44.848Z,100824.84
2023-03-17T02:42:12.653Z,100825.66
2023-03-17T02:44:39.558Z,100813.50
2023-03-17T02:47:07.422Z,100799.06
2023-03-17T02:49:34.927Z,100793.06
2023-03-17T02:52:01.575Z,100789.25
2023-03-17T02:54:28.248Z,100787.78
2023-03-17T02:56:54.593Z,100769.66
2023-03-17T02:59:21.182Z,100742.81
2023-03-17T03:01:48.528Z,100747.03
2023-03-17T03:04:15.081Z,100759.53
2023-03-17T03:06:42.557Z,100778.16
2023-03-17T03:09:11.643Z,100782.28
2023-03-17T03:11:38.704Z,100775.81
2023-03-17T03:14:05.545Z,100789.94
2023-03-17T03:16:32.068Z,100791.09
2023-03-17T03:18:58.486Z,100785.78
2023-03-17T03:21:24.915Z,100783.53
2023-03-17T03:23:51.456Z,100778.19
2023-03-17T03:26:18.134Z,100797.16
2023-03-17T03:28:44.842Z,100788.94
2023-03-17T03:31:11.691Z,100785.94
2023-03-17T03:33:38.144Z,100784.44
2023-03-17T03:36:04.661Z,100765.91
2023-03-17T03:38:31.645Z,100752.63
2023-03-17T03:40:58.012Z,100751.91
2023-03-17T03:43:24.460Z,100754.56
2023-03-17T03:45:51.375Z,100757.94
2023-03-17T03:48:18.012Z,100762.47
2023-03-17T03:50:44.571Z,100760.97
2023-03-17T03:53:11.041Z,100754.91
2023-03-17T03:55:37.441Z,100763.22
2023-03-17T03:58:03.934Z,100770.03
2023-03-17T04:00:30.615Z,100773.03
2023-03-17T04:02:57.423Z,100763.59
2023-03-17T04:05:23.870Z,100753.75
2023-03-17T04:07:50.563Z,100753.78
2023-03-17T04:10:17.432Z,100752.66
2023-03-17T04:12:44.196Z,100748.09
2023-03-17T04:15:12.020Z,100743.56
2023-03-17T04:17:38.454Z,100746.56
2023-03-17T04:20:05.492Z,100751.13
2023-03-17T04:22:31.891Z,100751.09
2023-03-17T04:24:58.274Z,100753.41
2023-03-17T04:27:24.669Z,100752.63
2023-03-17T04:29:51.209Z,100754.84
2023-03-17T04:32:17.698Z,100753.34
2023-03-17T04:34:44.202Z,100745.03
2023-03-17T04:37:11.095Z,100749.53
2023-03-17T04:39:37.499Z,100740.47
2023-03-17T04:42:05.216Z,100736.66
2023-03-17T04:44:32.016Z,100732.91
2023-03-17T04:46:58.557Z,100726.06
2023-03-17T04:49:25.813Z,100726.88
2023-03-17T04:51:52.306Z,100726.44
2023-03-17T04:54:18.826Z,100716.25
2023-03-17T04:56:45.314Z,100721.56
2023-03-17T04:59:11.814Z,100722.34
2023-03-17T05:01:39.282Z,100720.41
2023-03-17T05:04:06.892Z,100713.16
2023-03-17T05:06:33.315Z,100712.06
2023-03-17T05:08:59.701Z,100709.47
2023-03-17T05:11:26.134Z,100707.56
2023-03-17T05:13:52.782Z,100701.94
2023-03-17T05:16:19.276Z,100704.56
2023-03-17T05:18:45.732Z,100692.84
2023-03-17T05:21:12.497Z,100702.28
2023-03-17T05:23:38.965Z,100709.06
2023-03-17T05:26:05.497Z,100708.66
2023-03-17T05:28:32.589Z,100704.91
2023-03-17T05:30:59.088Z,100709.81
2023-03-17T05:33:26.120Z,100706.00
2023-03-17T05:35:52.560Z,100713.13
2023-03-17T05:38:18.959Z,100705.63
2023-03-17T05:40:45.698Z,100703.72
2023-03-17T05:43:12.095Z,100701.47
2023-03-17T05:45:39.159Z,100710.94
2023-03-17T05:48:05.606Z,100704.13
2023-03-17T05:50:32.484Z,100704.53
2023-03-17T05:52:59.101Z,100695.06
2023-03-17T05:55:25.564Z,100698.13
2023-03-17T05:57:52.044Z,100712.91
2023-03-17T06:00:18.843Z,100708.00
2023-03-17T06:02:45.287Z,100716.69
2023-03-17T06:05:12.293Z,100713.25
2023-03-17T06:07:51.585Z,100709.13
2023-03-17T06:10:18.521Z,100712.56
2023-03-17T06:12:44.920Z,100714.06
2023-03-17T06:15:11.331Z,100711.03
2023-03-17T06:17:37.734Z,100712.91
2023-03-17T06:20:04.625Z,100709.88
2023-03-17T06:22:31.457Z,100706.47
2023-03-17T06:24:57.864Z,100711.75
2023-03-17T06:27:24.217Z,100707.91
2023-03-17T06:29:50.646Z,100716.97
2023-03-17T06:32:20.680Z,100719.56
2023-03-17T06:34:48.112Z,100714.56
2023-03-17T06:37:14.711Z,100713.41
2023-03-17T06:39:42.208Z,100719.78
2023-03-17T06:42:08.659Z,100725.41
2023-03-17T06:44:36.264Z,100733.44
2023-03-17T06:47:02.649Z,100729.31
2023-03-17T06:49:29.081Z,100719.41
2023-03-17T06:51:55.491Z,100734.47
2023-03-17T06:54:24.528Z,100734.06
2023-03-17T06:56:52.281Z,100730.16
2023-03-17T06:59:20.071Z,100730.19
2023-03-17T07:01:46.578Z,100739.25
2023-03-17T07:04:13.040Z,100738.44
2023-03-17T07:06:39.540Z,100744.72
2023-03-17T07:09:07.606Z,100739.75
2023-03-17T07:11:34.006Z,100740.69
2023-03-17T07:14:00.549Z,100737.94
2023-03-17T07:16:27.644Z,100739.34
2023-03-17T07:18:54.246Z,100723.47
2023-03-17T07:21:21.066Z,100721.53
2023-03-17T07:23:47.774Z,100718.09
2023-03-17T07:26:14.478Z,100723.31
2023-03-17T07:28:40.884Z,100725.03
2023-03-17T07:31:14.015Z,100725.03
2023-03-17T07:33:41.136Z,100726.16
2023-03-17T07:36:09.028Z,100732.19
2023-03-17T07:38:36.115Z,100735.94
2023-03-17T07:41:03.625Z,100731.66
2023-03-17T07:43:30.541Z,100736.50
2023-03-17T07:45:57.136Z,100739.03
2023-03-17T07:48:24.023Z,100735.28
2023-03-17T07:50:50.798Z,100731.94
2023-03-17T07:53:17.173Z,100739.91
2023-03-17T07:55:43.571Z,100736.25
2023-03-17T07:58:10.464Z,100730.63
2023-03-17T08:00:37.118Z,100734.44
2023-03-17T08:03:10.151Z,100730.91
2023-03-17T08:05:37.615Z,100726.19
2023-03-17T08:08:05.224Z,100739.19
2023-03-17T08:10:31.940Z,100731.59
2023-03-17T08:12:58.699Z,100734.47
2023-03-17T08:15:25.211Z,100724.41
2023-03-17T08:17:51.616Z,100719.25
2023-03-17T08:20:18.343Z,100715.09
2023-03-17T08:22:44.729Z,100718.22
2023-03-17T08:25:12.145Z,100715.38
2023-03-17T08:27:38.648Z,100712.72
2023-03-17T08:30:05.771Z,100704.47
2023-03-17T08:32:32.251Z,100715.22
2023-03-17T08:34:58.719Z,100719.31
2023-03-17T08:37:25.171Z,100715.13
2023-03-17T08:39:51.576Z,100714.31
2023-03-17T08:42:18.008Z,100710.13
2023-03-17T08:44:44.461Z,100701.72
2023-03-17T08:47:10.945Z,100695.91
2023-03-17T08:49:37.456Z,100700.97
2023-03-17T08:52:04.350Z,100697.63
2023-03-17T08:54:30.733Z,100698.94
2023-03-17T08:56:58.595Z,100705.31
2023-03-17T08:59:24.977Z,100706.25
2023-03-17T09:01:51.767Z,100708.06
2023-03-17T09:04:18.151Z,100709.88
2023-03-17T09:07:01.694Z,100723.47
2023-03-17T09:09:30.757Z,100725.81
2023-03-17T09:11:57.183Z,100729.94
2023-03-17T09:14:24.825Z,100719.44
2023-03-17T09:16:51.430Z,100723.50
2023-03-17T09:19:17.910Z,100710.34
2023-03-17T09:21:44.576Z,100706.78
2023-03-17T09:24:11.318Z,100705.06
2023-03-17T09:26:38.283Z,100699.81
2023-03-17T09:29:05.247Z,100700.56
2023-03-17T09:31:32.368Z,100701.34
2023-03-17T09:33:59.168Z,100693.13
2023-03-17T09:36:25.993Z,100689.56
2023-03-17T09:38:52.439Z,100702.94
2023-03-17T09:41:23.742Z,100709.50
2023-03-17T09:44:09.443Z,100701.13
2023-03-17T09:46:46.719Z,100709.78
2023-03-17T09:49:15.409Z,100709.78
2023-03-17T09:51:43.396Z,100708.91
2023-03-17T09:54:26.326Z,100713.56
2023-03-17T09:57:06.127Z,100714.75
2023-03-17T09:59:35.247Z,100717.09
2023-03-17T10:02:02.166Z,100718.28
2023-03-17T10:04:28.957Z,100711.13
2023-03-17T10:07:01.279Z,100713.31
2023-03-17T10:09:35.915Z,100711.25
2023-03-17T10:12:09.751Z,100710.16
2023-03-17T10:14:51.735Z,100705.84
2023-03-17T10:17:22.870Z,100714.84
2023-03-17T10:20:04.477Z,100705.56
2023-03-17T10:22:48.154Z,100702.91
2023-03-17T10:25:20.198Z,100710.59
2023-03-17T10:27:53.029Z,100717.13
2023-03-17T10:30:22.032Z,100711.91
2023-03-17T10:32:49.264Z,100703.91
2023-03-17T10:35:16.365Z,100710.53
2023-03-17T10:37:44.134Z,100706.16
2023-03-17T10:40:37.186Z,100698.25
2023-03-17T10:43:07.841Z,100691.56
2023-03-17T10:45:43.264Z,100697.06
2023-03-17T10:48:17.328Z,100699.75
2023-03-17T10:50:48.629Z,100708.94
2023-03-17T10:53:30.177Z,100704.31
2023-03-17T10:56:08.322Z,100707.00
2023-03-17T10:58:41.609Z,100697.41
2023-03-17T11:01:21.425Z,100694.78
2023-03-17T11:03:48.619Z,100693.53
2023-03-17T11:06:17.079Z,100691.50
2023-03-17T11:08:53.690Z,100701.56
2023-03-17T11:11:29.842Z,100704.53
2023-03-17T11:14:06.297Z,100689.50
2023-03-17T11:16:35.429Z,100684.00
2023-03-17T11:19:03.471Z,100675.13
2023-03-17T11:21:32.054Z,100672.56
2023-03-17T11:24:12.616Z,100674.25
2023-03-17T11:26:46.324Z,100664.09
2023-03-17T11:29:22.583Z,100667.38
2023-03-17T11:31:59.672Z,100670.50
2023-03-17T11:34:35.203Z,100673.47
2023-03-17T11:37:06.929Z,100672.78
2023-03-17T11:40:03.152Z,100665.69
2023-03-17T11:42:49.263Z,100668.59
2023-03-17T11:45:41.857Z,100667.38
2023-03-17T11:48:45.842Z,100662.31
2023-03-17T11:51:33.452Z,100652.56
2023-03-17T11:54:09.618Z,100654.97
2023-03-17T11:56:42.201Z,100656.97
2023-03-17T11:59:38.609Z,100667.91
2023-03-17T12:02:27.273Z,100668.63
2023-03-17T12:05:07.024Z,100662.25
2023-03-17T12:07:55.353Z,100657.97
2023-03-17T12:10:41.228Z,100654.47
2023-03-17T12:13:12.965Z,100659.28
2023-03-17T12:15:47.458Z,100659.66
2023-03-17T12:18:26.561Z,100651.97
2023-03-17T12:21:25.590Z,100645.53
2023-03-17T12:24:01.839Z,100649.75
2023-03-17T12:26:37.454Z,100650.50
2023-03-17T12:29:13.718Z,100665.13
2023-03-17T12:31:52.770Z,100647.22
2023-03-17T12:34:26.357Z,100662.06
2023-03-17T12:36:53.331Z,100663.72
2023-03-17T12:39:52.496Z,100665.25
2023-03-17T12:42:38.682Z,100650.91
2023-03-17T12:45:26.761Z,100651.47
2023-03-17T12:48:02.633Z,100658.81
2023-03-17T12:50:50.699Z,100663.63
2023-03-17T12:53:32.385Z,100671.44
2023-03-17T12:56:04.222Z,100665.31
2023-03-17T12:58:45.049Z,100652.88
2023-03-17T13:01:32.573Z,100655.34
2023-03-17T13:04:09.302Z,100654.81
2023-03-17T13:06:57.556Z,100656.38
2023-03-17T13:09:33.130Z,100647.81
2023-03-17T13:12:01.280Z,100647.66
2023-03-17T13:14:46.339Z,100644.50
2023-03-17T13:17:19.779Z,100653.78
2023-03-17T13:20:08.196Z,100641.31
2023-03-17T13:22:37.725Z,100647.38
2023-03-17T13:25:35.350Z,100651.31
2023-03-17T13:28:17.594Z,100643.28
2023-03-17T13:30:56.961Z,100655.53
2023-03-17T13:33:30.721Z,100659.66
2023-03-17T13:36:19.304Z,100663.16
2023-03-17T13:39:15.177Z,100651.78
2023-03-17T13:41:56.583Z,100644.50
2023-03-17T13:44:32.483Z,100642.16
2023-03-17T13:47:24.320Z,100630.78
2023-03-17T13:49:52.924Z,100647.03
2023-03-17T13:52:41.463Z,100649.72
2023-03-17T13:55:20.485Z,100659.84
2023-03-17T13:58:13.330Z,100652.38
2023-03-17T14:00:58.838Z,100657.25
2023-03-17T14:03:42.321Z,100661.94
2023-03-17T14:06:12.035Z,100642.78
2023-03-17T14:08:44.608Z,100640.13
2023-03-17T14:11:40.753Z,100636.09
2023-03-17T14:14:15.220Z,100635.22
2023-03-17T14:17:03.305Z,100625.22
2023-03-17T14:19:29.819Z,100619.63
2023-03-17T14:22:04.421Z,100629.25
2023-03-17T14:24:33.088Z,100632.47
2023-03-17T14:27:06.358Z,100622.06
2023-03-17T14:29:33.621Z,100618.41
2023-03-17T14:32:05.733Z,100614.81
2023-03-17T14:34:32.381Z,100617.81
2023-03-17T14:37:01.544Z,100624.13
2023-03-17T14:39:28.489Z,100623.59
2023-03-17T14:42:00.258Z,100605.50
2023-03-17T14:44:26.648Z,100591.09
2023-03-17T14:47:01.656Z,100585.25
2023-03-17T14:49:28.515Z,100589.16
2023-03-17T14:51:58.636Z,100591.28
2023-03-17T14:54:31.205Z,100569.22
2023-03-17T14:57:05.036Z,100562.78
2023-03-17T14:59:36.824Z,100588.53
2023-03-17T15:02:21.850Z,100602.28
2023-03-17T15:05:26.260Z,100603.59
2023-03-17T15:07:53.350Z,100614.78
2023-03-17T15:10:22.678Z,100603.84
2023-03-17T15:12:49.621Z,100602.72
2023-03-17T15:15:21.440Z,100607.09
2023-03-17T15:17:55.346Z,100592.09
2023-03-17T15:20:22.817Z,100599.03
2023-03-17T15:22:58.122Z,100604.66
2023-03-17T15:25:31.580Z,100609.53
2023-03-17T15:27:58.338Z,100608.97
2023-03-17T15:30:27.472Z,100601.75
2023-03-17T15:33:01.591Z,100610.25
2023-03-17T15:35:28.530Z,100618.09
2023-03-17T15:37:55.802Z,100627.44
2023-03-17T15:40:22.303Z,100626.53
2023-03-17T15:42:48.755Z,100626.56
2023-03-17T15:45:16.696Z,100623.25
2023-03-17T15:47:44.610Z,100622.84
2023-03-17T15:50:24.350Z,100626.22
2023-03-17T15:52:55.893Z,100615.50
2023-03-17T15:55:29.427Z,100626.91
2023-03-17T15:57:59.513Z,100623.22
2023-03-17T16:00:29.103Z,100631.31
2023-03-17T16:02:59.530Z,100620.34
2023-03-17T16:05:28.083Z,100609.34
2023-03-17T16:07:54.931Z,100584.88
2023-03-17T16:10:23.109Z,100565.13
2023-03-17T16:12:50.175Z,100564.81
2023-03-17T16:15:23.636Z,100581.91
2023-03-17T16:17:53.484Z,100586.41
2023-03-17T16:20:34.293Z,100587.69
2023-03-17T16:23:08.217Z,100592.91
2023-03-17T16:25:34.791Z,100603.84
2023-03-17T16:28:03.068Z,100609.25
2023-03-17T16:30:32.063Z,100599.19
2023-03-17T16:33:05.052Z,100599.13
2023-03-17T16:35:31.494Z,100591.09
2023-03-17T16:37:58.067Z,100588.50
2023-03-17T16:40:26.957Z,100582.78
2023-03-17T16:42:53.558Z,100586.31
2023-03-17T16:45:23.005Z,100591.38
2023-03-17T16:47:50.196Z,100592.13
2023-03-17T16:50:18.970Z,100591.75
2023-03-17T16:52:45.695Z,100585.69
2023-03-17T16:55:12.925Z,100585.97
2023-03-17T16:57:40.237Z,100583.19
2023-03-17T17:00:07.946Z,100585.59
2023-03-17T17:02:34.369Z,100598.31
2023-03-17T17:05:02.694Z,100585.09
2023-03-17T17:07:29.065Z,100591.47
2023-03-17T17:09:55.724Z,100591.41
2023-03-17T17:12:22.133Z,100587.53
2023-03-17T17:14:48.555Z,100607.59
2023-03-17T17:17:14.958Z,100604.53
2023-03-17T17:19:41.794Z,100614.09
2023-03-17T17:22:11.198Z,100610.03
2023-03-17T17:24:37.599Z,100610.69
2023-03-17T17:27:04.238Z,100616.38
2023-03-17T17:29:32.391Z,100612.50
2023-03-17T17:31:59.155Z,100603.81
2023-03-17T17:34:26.022Z,100607.97
2023-03-17T17:36:53.081Z,100600.78
2023-03-17T17:39:19.476Z,100611.19
2023-03-17T17:41:45.849Z,100608.84
2023-03-17T17:44:12.246Z,100604.31
2023-03-17T17:46:38.882Z,100602.25
2023-03-17T17:49:05.984Z,100605.09
2023-03-17T17:51:32.811Z,100605.22
2023-03-17T17:53:59.412Z,100606.09
2023-03-17T17:56:26.155Z,100616.38
2023-03-17T17:58:52.550Z,100614.88
2023-03-17T18:01:22.329Z,100618.91
2023-03-17T18:03:48.841Z,100614.13
2023-03-17T18:06:17.024Z,100607.94
2023-03-17T18:08:44.242Z,100603.72
2023-03-17T18:11:10.753Z,100599.22
2023-03-17T18:13:38.952Z,100595.53
2023-03-17T18:16:09.792Z,100591.09
2023-03-17T18:18:40.491Z,100596.91
2023-03-17T18:21:06.902Z,100603.13
2023-03-17T18:23:34.256Z,100610.16
2023-03-17T18:26:01.623Z,100608.41
2023-03-17T18:28:28.160Z,100606.16
2023-03-17T18:30:54.872Z,100600.59
2023-03-17T18:33:21.326Z,100594.91
2023-03-17T18:35:50.916Z,100597.25
2023-03-17T18:38:17.385Z,100604.38
2023-03-17T18:40:44.040Z,100601.16
2023-03-17T18:43:10.677Z,100596.09
2023-03-17T18:45:37.130Z,100593.34
2023-03-17T18:48:03.738Z,100584.34
2023-03-17T18:50:30.476Z,100577.94
2023-03-17T18:52:57.224Z,100580.56
2023-03-17T18:55:23.698Z,100595.75
2023-03-17T18:57:50.127Z,100588.88
2023-03-17T19:00:18.659Z,100603.72
2023-03-17T19:02:45.521Z,100601.63
2023-03-17T19:05:12.774Z,100598.78
2023-03-17T19:07:40.585Z,100603.88
2023-03-17T19:10:08.416Z,100598.13
2023-03-17T19:12:34.957Z,100597.16
2023-03-17T19:15:01.731Z,100592.38
2023-03-17T19:17:28.269Z,100585.66
2023-03-17T19:19:54.720Z,100577.69
2023-03-17T19:22:21.157Z,100581.75
2023-03-17T19:24:50.119Z,100574.56
2023-03-17T19:27:17.504Z,100561.19
2023-03-17T19:29:44.007Z,100566.09
2023-03-17T19:32:10.397Z,100571.22
2023-03-17T19:34:36.825Z,100566.03
2023-03-17T19:37:03.847Z,100568.00
2023-03-17T19:39:31.311Z,100582.19
2023-03-17T19:41:59.466Z,100568.47
2023-03-17T19:44:26.205Z,100568.75
2023-03-17T19:46:52.670Z,100567.38
2023-03-17T19:49:21.051Z,100568.78
2023-03-17T19:51:48.830Z,100566.47
2023-03-17T19:54:15.640Z,100561.75
2023-03-17T19:56:42.502Z,100569.03
2023-03-17T19:59:09.024Z,100558.22
2023-03-17T20:01:38.057Z,100568.75
2023-03-17T20:04:06.626Z,100567.06
2023-03-17T20:06:33.613Z,100561.97
2023-03-17T20:09:00.972Z,100573.28
2023-03-17T20:11:27.433Z,100571.06
2023-03-17T20:13:53.847Z,100576.19
2023-03-17T20:16:20.444Z,100578.53
2023-03-17T20:18:47.155Z,100577.66
2023-03-17T20:21:13.857Z,100564.94
2023-03-17T20:23:40.263Z,100575.09
2023-03-17T20:26:07.371Z,100568.63
2023-03-17T20:28:34.099Z,100563.28
2023-03-17T20:31:02.923Z,100559.06
2023-03-17T20:33:29.473Z,100559.44
2023-03-17T20:35:55.915Z,100560.00
2023-03-17T20:38:22.744Z,100570.25
2023-03-17T20:40:49.273Z,100577.09
2023-03-17T20:43:16.003Z,100584.47
2023-03-17T20:45:42.504Z,100569.09
2023-03-17T20:48:10.646Z,100567.81
2023-03-17T20:50:38.490Z,100566.78
2023-03-17T20:53:04.956Z,100569.22
2023-03-17T20:55:31.361Z,100562.59
2023-03-17T20:57:59.688Z,100569.31
2023-03-17T21:00:26.396Z,100570.75
2023-03-17T21:02:53.383Z,100571.34
2023-03-17T21:05:23.244Z,100560.63
2023-03-17T21:07:49.800Z,100564.84
2023-03-17T21:10:16.625Z,100545.03
2023-03-17T21:12:43.839Z,100551.31
2023-03-17T21:15:12.840Z,100556.59
2023-03-17T21:17:39.696Z,100556.69
2023-03-17T21:20:07.056Z,100557.88
2023-03-17T21:22:37.017Z,100557.63
2023-03-17T21:25:08.715Z,100550.56
2023-03-17T21:27:39.351Z,100542.88
2023-03-17T21:30:09.596Z,100542.34
2023-03-17T21:32:36.312Z,100544.09
2023-03-17T21:35:03.092Z,100560.94
2023-03-17T21:37:29.511Z,100564.59
2023-03-17T21:39:56.642Z,100558.63
2023-03-17T21:42:24.537Z,100557.88
2023-03-17T21:44:52.087Z,100558.63
2023-03-17T21:47:19.279Z,100560.00
2023-03-17T21:49:45.685Z,100564.59
2023-03-17T21:52:12.676Z,100563.09
2023-03-17T21:54:39.246Z,100565.69
2023-03-17T21:57:05.615Z,100566.09
2023-03-17T21:59:34.366Z,100564.97
2023-03-17T22:02:00.778Z,100576.47
2023-03-17T22:04:28.465Z,100588.91
2023-03-17T22:06:55.936Z,100570.41
2023-03-17T22:09:22.389Z,100582.00
2023-03-17T22:11:49.626Z,100580.16
2023-03-17T22:14:19.972Z,100574.19
2023-03-17T22:16:47.525Z,100564.09
2023-03-17T22:19:14.084Z,100581.31
2023-03-17T22:21:41.093Z,100574.69
2023-03-17T22:24:07.821Z,100575.44
2023-03-17T22:26:34.622Z,100580.56
2023-03-17T22:29:01.413Z,100577.38
2023-03-17T22:31:28.923Z,100576.09
2023-03-17T22:33:57.728Z,100582.63
2023-03-17T22:36:25.603Z,100588.00
2023-03-17T22:38:51.991Z,100579.09
2023-03-17T22:41:21.594Z,100573.34
2023-03-17T22:43:48.195Z,100571.94
2023-03-17T22:46:15.768Z,100578.25
2023-03-17T22:48:42.443Z,100573.97
2023-03-17T22:51:11.948Z,100579.31
2023-03-17T22:53:39.358Z,100580.28
2023-03-17T22:56:07.249Z,100581.66
2023-03-17T22:58:33.835Z,100576.19
2023-03-17T23:01:01.203Z,100584.13
2023-03-17T23:03:28.326Z,100581.00
2023-03-17T23:05:58.204Z,100577.13
2023-03-17T23:08:25.060Z,100578.91
2023-03-17T23:10:51.526Z,100583.41
2023-03-17T23:13:19.621Z,100586.31
2023-03-17T23:15:47.507Z,100578.69
2023-03-17T23:18:14.004Z,100574.28
2023-03-17T23:20:40.754Z,100581.69
2023-03-17T23:23:08.335Z,100584.16
2023-03-17T23:25:36.536Z,100586.66
2023-03-17T23:28:03.294Z,100584.38
2023-03-17T23:30:30.874Z,100582.53
2023-03-17T23:32:58.048Z,100578.81
2023-03-17T23:35:25.165Z,100581.72
2023-03-17T23:37:51.821Z,100584.13
2023-03-17T23:40:18.325Z,100582.31
2023-03-17T23:42:45.857Z,100578.78
2023-03-17T23:45:12.395Z,100578.31
2023-03-17T23:47:38.929Z,100585.16
2023-03-17T23:50:05.855Z,100584.38
2023-03-17T23:52:32.668Z,100582.06
2023-03-17T23:54:59.130Z,100592.16
2023-03-17T23:57:26.017Z,100594.72
2023-03-17T23:59:52.473Z,100595.38
